createdAt,value
2022-09-16T00:00:05.704Z,25.91
2022-09-16T00:01:45.454Z,25.91
2022-09-16T00:03:25.242Z,25.92
2022-09-16T00:05:04.993Z,25.91
2022-09-16T00:06:44.772Z,25.91
2022-09-16T00:08:24.532Z,25.91
2022-09-16T00:10:04.309Z,25.9
2022-09-16T00:11:44.064Z,25.91
2022-09-16T00:13:23.843Z,25.9
2022-09-16T00:15:03.598Z,25.91
2022-09-16T00:16:43.377Z,25.86
2022-09-16T00:18:23.144Z,25.9
2022-09-16T00:20:02.917Z,25.9
2022-09-16T00:21:42.686Z,25.91
2022-09-16T00:23:22.449Z,25.9
2022-09-16T00:26:41.967Z,25.9
2022-09-16T00:28:21.746Z,25.89
2022-09-16T00:30:01.498Z,25.9
2022-09-16T00:31:41.274Z,25.89
2022-09-16T00:33:21.056Z,25.89
2022-09-16T00:35:00.814Z,25.89
2022-09-16T00:36:40.599Z,25.89
2022-09-16T00:38:20.363Z,25.89
2022-09-16T00:40:00.114Z,25.88
2022-09-16T00:41:39.904Z,25.89
2022-09-16T00:43:19.648Z,25.88
2022-09-16T00:44:59.425Z,25.89
2022-09-16T00:46:39.188Z,25.88
2022-09-16T00:48:18.943Z,25.88
2022-09-16T00:49:58.726Z,25.88
2022-09-16T00:51:38.489Z,25.87
2022-09-16T00:53:18.283Z,25.87
2022-09-16T00:54:58.016Z,25.88
2022-09-16T00:56:37.797Z,25.87
2022-09-16T00:58:17.573Z,25.87
2022-09-16T00:59:57.344Z,25.87
2022-09-16T01:01:37.103Z,25.87
2022-09-16T01:03:16.861Z,25.86
2022-09-16T01:06:36.393Z,25.86
2022-09-16T01:08:16.158Z,25.86
2022-09-16T01:09:55.929Z,25.86
2022-09-16T01:11:35.694Z,25.86
2022-09-16T01:13:15.479Z,25.86
2022-09-16T01:14:55.229Z,25.86
2022-09-16T01:16:34.996Z,25.85
2022-09-16T01:18:14.761Z,25.85
2022-09-16T01:19:54.541Z,25.85
2022-09-16T01:21:34.300Z,25.85
2022-09-16T01:23:14.076Z,25.84
2022-09-16T01:24:53.825Z,25.85
2022-09-16T01:26:33.594Z,25.84
2022-09-16T01:28:13.385Z,25.85
2022-09-16T01:29:53.130Z,25.84
2022-09-16T01:31:32.910Z,25.84
2022-09-16T01:34:52.435Z,25.84
2022-09-16T01:36:32.200Z,25.84
2022-09-16T01:38:11.977Z,25.83
2022-09-16T01:39:51.735Z,25.84
2022-09-16T01:41:31.498Z,25.83
2022-09-16T01:43:11.280Z,25.83
2022-09-16T01:44:51.049Z,25.83
2022-09-16T01:46:30.808Z,25.83
2022-09-16T01:48:10.575Z,25.82
2022-09-16T01:49:50.343Z,25.82
2022-09-16T01:51:30.121Z,25.82
2022-09-16T01:53:09.882Z,25.82
2022-09-16T01:54:49.646Z,25.82
2022-09-16T01:56:29.418Z,25.82
2022-09-16T01:58:09.182Z,25.82
2022-09-16T01:59:48.950Z,25.81
2022-09-16T02:01:28.750Z,25.81
2022-09-16T02:03:08.481Z,25.81
2022-09-16T02:04:48.249Z,25.81
2022-09-16T02:06:28.022Z,25.81
2022-09-16T02:08:07.774Z,25.81
2022-09-16T02:09:47.556Z,25.81
2022-09-16T02:11:27.315Z,25.8
2022-09-16T02:13:07.075Z,25.8
2022-09-16T02:14:46.856Z,25.8
2022-09-16T02:16:26.612Z,25.8
2022-09-16T02:18:06.393Z,25.8
2022-09-16T02:19:46.154Z,25.79
2022-09-16T02:21:25.959Z,25.79
2022-09-16T02:23:05.687Z,25.79
2022-09-16T02:24:45.455Z,25.79
2022-09-16T02:26:25.237Z,25.79
2022-09-16T02:29:44.751Z,25.79
2022-09-16T02:31:24.545Z,25.79
2022-09-16T02:33:04.293Z,25.79
2022-09-16T02:34:44.085Z,25.78
2022-09-16T02:36:23.837Z,25.79
2022-09-16T02:38:03.596Z,25.78
2022-09-16T02:39:43.362Z,25.78
2022-09-16T02:41:23.123Z,25.78
2022-09-16T02:43:02.908Z,25.78
2022-09-16T02:44:42.669Z,25.77
2022-09-16T02:46:22.444Z,25.78
2022-09-16T02:48:02.203Z,25.77
2022-09-16T02:49:41.978Z,25.77
2022-09-16T02:51:21.743Z,25.77
2022-09-16T02:53:01.496Z,25.77
2022-09-16T02:54:41.274Z,25.77
2022-09-16T02:56:21.039Z,25.77
2022-09-16T02:58:00.811Z,25.76
2022-09-16T02:59:40.577Z,25.76
2022-09-16T03:01:20.336Z,25.76
2022-09-16T03:03:00.099Z,25.76
2022-09-16T03:06:19.642Z,25.76
2022-09-16T03:07:59.409Z,25.75
2022-09-16T03:09:39.182Z,25.74
2022-09-16T03:11:18.951Z,25.76
2022-09-16T03:12:58.712Z,25.75
2022-09-16T03:14:38.481Z,25.75
2022-09-16T03:16:18.236Z,25.75
2022-09-16T03:17:58.043Z,25.75
2022-09-16T03:19:37.793Z,25.75
2022-09-16T03:21:17.554Z,25.74
2022-09-16T03:22:57.462Z,25.74
2022-09-16T03:24:37.091Z,25.74
2022-09-16T03:26:16.851Z,25.74
2022-09-16T03:27:56.619Z,25.74
2022-09-16T03:29:36.461Z,25.74
2022-09-16T03:31:16.219Z,25.74
2022-09-16T03:32:55.918Z,25.74
2022-09-16T03:34:35.698Z,25.71
2022-09-16T03:36:15.455Z,25.74
2022-09-16T03:37:55.268Z,25.74
2022-09-16T03:39:35.054Z,25.74
2022-09-16T03:41:14.775Z,25.73
2022-09-16T03:42:54.531Z,25.73
2022-09-16T03:44:34.283Z,25.73
2022-09-16T03:46:14.096Z,25.73
2022-09-16T03:47:53.825Z,25.73
2022-09-16T03:49:33.588Z,25.73
2022-09-16T03:51:13.370Z,25.73
2022-09-16T03:52:53.151Z,25.73
2022-09-16T03:54:32.892Z,25.73
2022-09-16T03:56:12.653Z,25.72
2022-09-16T03:57:52.504Z,25.72
2022-09-16T03:59:32.179Z,25.64
2022-09-16T04:01:11.940Z,25.72
2022-09-16T04:02:51.729Z,25.72
2022-09-16T04:04:31.527Z,25.72
2022-09-16T04:06:11.244Z,25.72
2022-09-16T04:07:51.018Z,25.72
2022-09-16T04:09:30.779Z,25.72
2022-09-16T04:11:10.541Z,25.72
2022-09-16T04:12:50.307Z,25.72
2022-09-16T04:14:30.080Z,25.72
2022-09-16T04:16:09.832Z,25.72
2022-09-16T04:17:49.605Z,25.72
2022-09-16T04:19:29.360Z,25.72
2022-09-16T04:21:09.120Z,25.72
2022-09-16T04:22:48.898Z,25.69
2022-09-16T04:24:28.682Z,25.7
2022-09-16T04:26:08.403Z,25.7
2022-09-16T04:27:48.178Z,25.7
2022-09-16T04:29:27.944Z,25.69
2022-09-16T04:31:07.706Z,25.7
2022-09-16T04:32:47.480Z,25.68
2022-09-16T04:34:27.244Z,25.7
2022-09-16T04:36:06.996Z,25.69
2022-09-16T04:37:46.765Z,25.69
2022-09-16T04:39:26.529Z,25.69
2022-09-16T04:41:06.296Z,25.7
2022-09-16T04:42:46.060Z,25.7
2022-09-16T04:44:25.814Z,25.69
2022-09-16T04:47:45.369Z,25.71
2022-09-16T04:49:25.146Z,25.71
2022-09-16T04:51:04.896Z,25.72
2022-09-16T04:52:44.651Z,25.72
2022-09-16T04:54:24.401Z,25.73
2022-09-16T04:56:04.177Z,25.74
2022-09-16T04:57:43.933Z,25.75
2022-09-16T04:59:23.729Z,25.76
2022-09-16T05:01:03.467Z,25.76
2022-09-16T05:02:43.255Z,25.78
2022-09-16T05:04:23.015Z,25.79
2022-09-16T05:06:02.782Z,25.83
2022-09-16T05:07:42.554Z,25.85
2022-09-16T05:09:22.339Z,25.86
2022-09-16T05:11:02.099Z,25.86
2022-09-16T05:14:21.701Z,25.94
2022-09-16T05:16:01.400Z,25.94
2022-09-16T05:17:41.179Z,25.96
2022-09-16T05:19:20.946Z,25.98
2022-09-16T05:21:00.702Z,26.01
2022-09-16T05:22:40.500Z,26.1
2022-09-16T05:24:20.253Z,26.11
2022-09-16T05:26:00.026Z,26.12
2022-09-16T05:27:39.781Z,26.12
2022-09-16T05:29:19.586Z,26.12
2022-09-16T05:30:59.322Z,26.11
2022-09-16T05:32:39.102Z,26.1
2022-09-16T05:34:18.866Z,26.12
2022-09-16T05:35:58.646Z,26.13
2022-09-16T05:37:38.426Z,26.08
2022-09-16T05:40:57.965Z,26.26
2022-09-16T05:42:37.721Z,26.3
2022-09-16T05:44:17.491Z,26.34
2022-09-16T05:45:57.256Z,26.41
2022-09-16T05:47:37.037Z,26.44
2022-09-16T05:49:16.824Z,26.53
2022-09-16T05:50:56.570Z,26.63
2022-09-16T05:52:36.352Z,26.64
2022-09-16T05:54:16.127Z,26.78
2022-09-16T05:55:55.885Z,26.81
2022-09-16T05:57:35.659Z,26.82
2022-09-16T05:59:15.435Z,26.81
2022-09-16T06:00:55.191Z,26.83
2022-09-16T06:02:34.962Z,26.81
2022-09-16T06:04:14.744Z,26.85
2022-09-16T06:05:54.501Z,26.91
2022-09-16T06:07:34.281Z,27
2022-09-16T06:09:14.036Z,27.05
2022-09-16T06:10:53.817Z,27.03
2022-09-16T06:12:33.599Z,27.05
2022-09-16T06:15:53.133Z,27.33
2022-09-16T06:17:32.910Z,27.35
2022-09-16T06:19:12.661Z,27.48
2022-09-16T06:20:52.429Z,27.46
2022-09-16T06:22:32.198Z,27.46
2022-09-16T06:24:11.979Z,28.33
2022-09-16T06:25:51.746Z,28.34
2022-09-16T06:27:31.536Z,28.95
2022-09-16T06:29:11.296Z,28.96
2022-09-16T06:30:51.054Z,29.06
2022-09-16T06:32:30.828Z,28.39
2022-09-16T06:34:10.607Z,28.23
2022-09-16T06:35:50.385Z,29.11
2022-09-16T06:37:30.142Z,28.82
2022-09-16T06:39:09.900Z,29.35
2022-09-16T06:40:49.681Z,29.21
2022-09-16T06:42:29.438Z,29.22
2022-09-16T06:44:09.230Z,29.19
2022-09-16T06:45:49.006Z,29.18
2022-09-16T06:47:28.755Z,29.15
2022-09-16T06:49:08.539Z,29.26
2022-09-16T06:50:48.290Z,29.25
2022-09-16T06:52:28.077Z,29.25
2022-09-16T06:54:07.845Z,29.04
2022-09-16T06:55:47.620Z,29.18
2022-09-16T06:57:27.375Z,29.25
2022-09-16T06:59:07.163Z,29.24
2022-09-16T07:00:46.950Z,29.23
2022-09-16T07:02:26.693Z,29.19
2022-09-16T07:04:06.522Z,29.08
2022-09-16T07:05:46.231Z,29.25
2022-09-16T07:07:26.010Z,29.23
2022-09-16T07:09:05.774Z,29.39
2022-09-16T07:10:45.629Z,29.21
2022-09-16T07:12:25.312Z,29.2
2022-09-16T07:14:05.091Z,29.21
2022-09-16T07:15:44.860Z,29.23
2022-09-16T07:17:24.627Z,29.16
2022-09-16T07:19:04.400Z,29.15
2022-09-16T07:20:44.175Z,29.13
2022-09-16T07:22:23.995Z,29.21
2022-09-16T07:24:03.831Z,29.21
2022-09-16T07:25:43.477Z,29.21
2022-09-16T07:27:23.278Z,29.24
2022-09-16T07:29:03.149Z,29.21
2022-09-16T07:30:42.896Z,29.2
2022-09-16T07:32:22.560Z,29.14
2022-09-16T07:34:02.400Z,29.31
2022-09-16T07:35:42.153Z,29.16
2022-09-16T07:37:21.867Z,29.15
2022-09-16T07:39:01.638Z,29.2
2022-09-16T07:40:41.418Z,29.25
2022-09-16T07:42:21.189Z,29.09
2022-09-16T07:44:00.979Z,29.23
2022-09-16T07:45:40.819Z,29.19
2022-09-16T07:47:20.514Z,29.2
2022-09-16T07:49:00.269Z,29.14
2022-09-16T07:50:40.045Z,28.95
2022-09-16T07:52:19.811Z,29.19
2022-09-16T07:53:59.640Z,29.19
2022-09-16T07:55:39.406Z,29.14
2022-09-16T07:57:19.164Z,29.14
2022-09-16T07:58:58.879Z,29.17
2022-09-16T08:00:38.662Z,29.15
2022-09-16T08:02:18.535Z,29.13
2022-09-16T08:03:58.321Z,29.18
2022-09-16T08:05:38.122Z,29.18
2022-09-16T08:07:17.888Z,29.12
2022-09-16T08:08:57.597Z,29.18
2022-09-16T08:10:37.340Z,29.12
2022-09-16T08:12:17.057Z,29.07
2022-09-16T08:13:56.813Z,29.18
2022-09-16T08:15:36.698Z,29.15
2022-09-16T08:17:16.463Z,29.14
2022-09-16T08:18:56.167Z,29.15
2022-09-16T08:20:35.979Z,29.16
2022-09-16T08:22:15.808Z,29.14
2022-09-16T08:23:55.453Z,29.11
2022-09-16T08:25:35.243Z,29.15
2022-09-16T08:27:15.060Z,29.11
2022-09-16T08:28:54.808Z,29.11
2022-09-16T08:30:34.636Z,29.3
2022-09-16T08:32:14.396Z,29.23
2022-09-16T08:33:54.072Z,29.13
2022-09-16T08:35:33.840Z,29.15
2022-09-16T08:37:13.680Z,29.11
2022-09-16T08:38:53.392Z,29.15
2022-09-16T08:40:33.144Z,29.12
2022-09-16T08:42:12.908Z,29.15
2022-09-16T08:43:52.765Z,29.31
2022-09-16T08:45:32.500Z,29.1
2022-09-16T08:47:12.265Z,29.1
2022-09-16T08:50:31.806Z,29.15
2022-09-16T08:52:11.629Z,29.03
2022-09-16T08:53:51.327Z,29
2022-09-16T08:55:31.099Z,29.11
2022-09-16T08:57:10.842Z,29.14
2022-09-16T08:58:50.661Z,29.09
2022-09-16T09:00:30.428Z,29.11
2022-09-16T09:02:10.245Z,28.9
2022-09-16T09:03:50.134Z,29.01
2022-09-16T09:05:29.719Z,29.03
2022-09-16T09:07:09.488Z,29.08
2022-09-16T09:08:49.255Z,29.15
2022-09-16T09:10:29.002Z,29.14
2022-09-16T09:12:08.920Z,29.26
2022-09-16T09:13:48.617Z,29.09
2022-09-16T09:15:28.347Z,29.24
2022-09-16T09:17:08.100Z,29.13
2022-09-16T09:18:47.957Z,29
2022-09-16T09:20:27.631Z,28.99
2022-09-16T09:22:07.511Z,28.93
2022-09-16T09:23:47.211Z,29.15
2022-09-16T09:25:27.035Z,29.13
2022-09-16T09:27:06.813Z,29.13
2022-09-16T09:28:46.494Z,29.08
2022-09-16T09:30:26.306Z,29.09
2022-09-16T09:32:06.040Z,29.13
2022-09-16T09:33:45.897Z,29.05
2022-09-16T09:35:25.594Z,28.03
2022-09-16T09:37:05.472Z,27.7
2022-09-16T09:38:45.156Z,27.57
2022-09-16T09:40:24.963Z,27.48
2022-09-16T09:42:04.655Z,27.4
2022-09-16T09:43:44.526Z,27.33
2022-09-16T09:45:24.284Z,27.26
2022-09-16T09:47:04.074Z,27.21
2022-09-16T09:48:43.836Z,27.25
2022-09-16T09:50:23.517Z,27.27
2022-09-16T09:52:03.283Z,27.27
2022-09-16T09:53:43.036Z,27.3
2022-09-16T09:55:22.837Z,27.32
2022-09-16T09:57:02.593Z,27.28
2022-09-16T09:58:42.339Z,27.33
2022-09-16T10:00:22.112Z,27.34
2022-09-16T10:02:01.885Z,27.32
2022-09-16T10:03:41.659Z,27.33
2022-09-16T10:05:21.462Z,27.32
2022-09-16T10:07:01.236Z,27.33
2022-09-16T10:08:40.963Z,27.33
2022-09-16T10:10:20.767Z,27.3
2022-09-16T10:12:00.512Z,27.3
2022-09-16T10:13:40.288Z,27.31
2022-09-16T10:15:20.061Z,27.32
2022-09-16T10:16:59.819Z,27.33
2022-09-16T10:20:19.360Z,27.32
2022-09-16T10:21:59.164Z,27.31
2022-09-16T10:23:39.024Z,27.31
2022-09-16T10:25:18.696Z,27.32
2022-09-16T10:26:58.433Z,27.32
2022-09-16T10:28:38.232Z,27.31
2022-09-16T10:30:17.971Z,27.3
2022-09-16T10:31:57.763Z,27.29
2022-09-16T10:33:37.522Z,27.29
2022-09-16T10:35:17.288Z,27.28
2022-09-16T10:36:57.075Z,27.27
2022-09-16T10:40:16.603Z,27.3
2022-09-16T10:41:56.380Z,27.32
2022-09-16T10:43:36.150Z,27.29
2022-09-16T10:45:15.980Z,27.28
2022-09-16T10:48:35.470Z,27.29
2022-09-16T10:50:15.218Z,27.28
2022-09-16T10:51:55.030Z,27.28
2022-09-16T10:53:34.812Z,27.31
2022-09-16T10:55:14.531Z,27.3
2022-09-16T10:56:54.365Z,27.31
2022-09-16T10:58:34.124Z,27.32
2022-09-16T11:01:53.716Z,27.28
2022-09-16T11:03:33.408Z,27.28
2022-09-16T11:05:13.158Z,27.27
2022-09-16T11:06:52.961Z,27.28
2022-09-16T11:08:32.706Z,27.26
2022-09-16T11:10:12.483Z,27.26
2022-09-16T11:11:52.225Z,27.28
2022-09-16T11:13:32.001Z,27.3
2022-09-16T11:15:11.770Z,27.2
2022-09-16T11:16:51.567Z,27.29
2022-09-16T11:18:31.331Z,27.29
2022-09-16T11:20:11.109Z,27.27
2022-09-16T11:21:50.938Z,27.25
2022-09-16T11:23:30.652Z,27.26
2022-09-16T11:25:10.392Z,27.28
2022-09-16T11:26:50.221Z,27.29
2022-09-16T11:28:29.933Z,27.28
2022-09-16T11:30:09.714Z,27.28
2022-09-16T11:31:49.482Z,27.28
2022-09-16T11:33:29.246Z,27.29
2022-09-16T11:35:09.028Z,27.26
2022-09-16T11:36:48.797Z,27.25
2022-09-16T11:38:28.571Z,27.26
2022-09-16T11:40:08.325Z,27.27
2022-09-16T11:41:48.151Z,27.27
2022-09-16T11:43:27.889Z,27.27
2022-09-16T11:45:07.742Z,27.26
2022-09-16T11:46:47.425Z,27.27
2022-09-16T11:48:27.324Z,27.27
2022-09-16T11:50:07.033Z,27.28
2022-09-16T11:51:46.811Z,27.28
2022-09-16T11:53:26.528Z,27.28
2022-09-16T11:55:06.360Z,27.28
2022-09-16T11:56:46.056Z,27.27
2022-09-16T12:00:05.572Z,27.28
2022-09-16T12:01:45.348Z,27.27
2022-09-16T12:03:25.122Z,27.26
2022-09-16T12:05:04.908Z,27.28
2022-09-16T12:06:44.680Z,27.25
2022-09-16T12:08:24.465Z,27.27
2022-09-16T12:10:04.198Z,27.27
2022-09-16T12:11:43.977Z,27.27
2022-09-16T12:13:23.736Z,27.25
2022-09-16T12:15:03.549Z,27.27
2022-09-16T12:16:43.282Z,27.23
2022-09-16T12:18:23.083Z,27.25
2022-09-16T12:20:02.917Z,27.26
2022-09-16T12:21:42.599Z,27.26
2022-09-16T12:23:22.368Z,27.26
2022-09-16T12:25:02.132Z,27.24
2022-09-16T12:26:41.902Z,27.25
2022-09-16T12:28:21.678Z,27.24
2022-09-16T12:30:01.450Z,27.24
2022-09-16T12:31:41.231Z,27.23
2022-09-16T12:33:20.982Z,27.13
2022-09-16T12:35:00.764Z,27.24
2022-09-16T12:36:40.523Z,27.24
2022-09-16T12:38:20.291Z,27.22
2022-09-16T12:40:00.099Z,27.23
2022-09-16T12:41:39.829Z,27.22
2022-09-16T12:43:19.595Z,27.23
2022-09-16T12:44:59.382Z,27.19
2022-09-16T12:46:39.153Z,27.19
2022-09-16T12:48:18.926Z,27.22
2022-09-16T12:49:58.707Z,27.21
2022-09-16T12:51:38.550Z,27.22
2022-09-16T12:53:18.228Z,27.22
2022-09-16T12:54:58.072Z,27.22
2022-09-16T12:56:37.775Z,27.21
2022-09-16T12:58:17.545Z,27.19
2022-09-16T12:59:57.308Z,27.18
2022-09-16T13:01:37.145Z,27.18
2022-09-16T13:03:16.884Z,27.17
2022-09-16T13:04:56.652Z,27.17
2022-09-16T13:06:36.388Z,27.18
2022-09-16T13:08:16.222Z,27.19
2022-09-16T13:09:55.964Z,27.2
2022-09-16T13:11:35.704Z,27.23
2022-09-16T13:13:15.486Z,27.23
2022-09-16T13:14:55.253Z,27.25
2022-09-16T13:16:35.013Z,27.23
2022-09-16T13:18:14.791Z,27.23
2022-09-16T13:19:54.557Z,27.22
2022-09-16T13:21:34.334Z,27.22
2022-09-16T13:23:14.106Z,27.22
2022-09-16T13:24:53.871Z,27.21
2022-09-16T13:26:33.636Z,27.21
2022-09-16T13:28:13.406Z,27.22
2022-09-16T13:29:53.174Z,27.22
2022-09-16T13:31:32.957Z,27.22
2022-09-16T13:33:12.718Z,27.23
2022-09-16T13:34:52.482Z,27.23
2022-09-16T13:36:32.257Z,27.21
2022-09-16T13:38:12.019Z,27.18
2022-09-16T13:39:51.793Z,27.18
2022-09-16T13:43:11.356Z,27.17
2022-09-16T13:44:51.110Z,27.18
2022-09-16T13:46:30.880Z,27.19
2022-09-16T13:48:10.658Z,27.22
2022-09-16T13:49:50.416Z,27.2
2022-09-16T13:51:30.203Z,27.09
2022-09-16T13:53:09.962Z,27.18
2022-09-16T13:54:49.735Z,27.19
2022-09-16T13:56:29.498Z,27.18
2022-09-16T13:58:09.264Z,27.19
2022-09-16T13:59:49.059Z,27.18
2022-09-16T14:01:28.887Z,27.21
2022-09-16T14:03:08.589Z,27.21
2022-09-16T14:04:48.379Z,27.19
2022-09-16T14:06:28.138Z,27.21
2022-09-16T14:08:07.909Z,27.19
2022-09-16T14:09:47.669Z,27.2
2022-09-16T14:11:27.468Z,27.18
2022-09-16T14:13:07.325Z,27.2
2022-09-16T14:16:26.751Z,27.22
2022-09-16T14:18:06.636Z,27.22
2022-09-16T14:19:46.438Z,27.22
2022-09-16T14:21:26.154Z,27.21
2022-09-16T14:23:05.841Z,27.19
2022-09-16T14:24:45.709Z,27.18
2022-09-16T14:28:05.290Z,27.2
2022-09-16T14:29:45.008Z,27.2
2022-09-16T14:31:24.829Z,27.21
2022-09-16T14:33:04.479Z,27.21
2022-09-16T14:34:44.340Z,27.21
2022-09-16T14:36:24.005Z,27.22
2022-09-16T14:38:03.808Z,27.21
2022-09-16T14:39:43.546Z,27.21
2022-09-16T14:43:03.136Z,27.2
2022-09-16T14:44:42.853Z,27.22
2022-09-16T14:46:22.698Z,27.22
2022-09-16T14:48:02.397Z,27.21
2022-09-16T14:49:42.296Z,27.21
2022-09-16T14:51:22.091Z,27.21
2022-09-16T14:53:01.714Z,27.2
2022-09-16T14:54:41.610Z,27.21
2022-09-16T14:56:21.415Z,27.21
2022-09-16T14:58:01.166Z,27.21
2022-09-16T14:59:40.937Z,27.2
2022-09-16T15:01:20.575Z,27.18
2022-09-16T15:03:00.478Z,27.2
2022-09-16T15:04:40.263Z,27.21
2022-09-16T15:06:20.032Z,27.21
2022-09-16T15:07:59.779Z,27.21
2022-09-16T15:09:39.541Z,27.1
2022-09-16T15:11:19.298Z,27.2
2022-09-16T15:12:59.082Z,27.2
2022-09-16T15:14:38.729Z,27.19
2022-09-16T15:16:18.485Z,27.18
2022-09-16T15:17:58.439Z,27.17
2022-09-16T15:19:38.183Z,27.17
2022-09-16T15:21:17.800Z,27.18
2022-09-16T15:22:57.585Z,27.17
2022-09-16T15:24:37.532Z,27.17
2022-09-16T15:26:17.292Z,27.17
2022-09-16T15:27:56.887Z,27.17
2022-09-16T15:29:36.799Z,27.18
2022-09-16T15:31:16.427Z,27.18
2022-09-16T15:32:56.310Z,27.2
2022-09-16T15:34:38.401Z,27.19
2022-09-16T15:36:15.893Z,27.17
2022-09-16T15:37:55.668Z,27.19
2022-09-16T15:40:35.629Z,27.2
2022-09-16T15:41:15.192Z,27.2
2022-09-16T15:42:54.970Z,27.18
2022-09-16T15:44:34.760Z,27.17
2022-09-16T15:46:14.527Z,27.18
2022-09-16T15:47:54.293Z,27.18
2022-09-16T15:49:34.046Z,27.19
2022-09-16T15:52:53.581Z,27.2
2022-09-16T15:54:33.344Z,27.17
2022-09-16T15:56:13.164Z,27.17
2022-09-16T15:57:52.946Z,27.17
2022-09-16T15:59:32.677Z,27.16
2022-09-16T16:01:12.283Z,27.17
2022-09-16T16:02:52.152Z,27.17
2022-09-16T16:04:32.002Z,27.17
2022-09-16T16:06:11.755Z,27.18
2022-09-16T16:07:51.556Z,27.18
2022-09-16T16:09:31.291Z,27.19
2022-09-16T16:11:11.051Z,27.18
2022-09-16T16:12:50.849Z,27.19
2022-09-16T16:14:30.593Z,27.17
2022-09-16T16:16:10.399Z,27.15
2022-09-16T16:17:50.148Z,27.16
2022-09-16T16:19:29.924Z,27.14
2022-09-16T16:21:09.691Z,27.13
2022-09-16T16:22:49.515Z,27.15
2022-09-16T16:24:29.241Z,27.17
2022-09-16T16:26:08.966Z,27.16
2022-09-16T16:27:48.791Z,27.09
2022-09-16T16:29:28.475Z,27.17
2022-09-16T16:31:08.160Z,27.16
2022-09-16T16:32:48.105Z,27.18
2022-09-16T16:34:27.853Z,27.18
2022-09-16T16:36:07.590Z,27.19
2022-09-16T16:37:47.419Z,27.17
2022-09-16T16:39:27.004Z,27.16
2022-09-16T16:41:06.901Z,27.16
2022-09-16T16:42:46.742Z,27.2
2022-09-16T16:44:26.490Z,27.23
2022-09-16T16:46:06.187Z,27.21
2022-09-16T16:47:45.868Z,27.19
2022-09-16T16:49:25.806Z,27.17
2022-09-16T16:51:05.583Z,27.17
2022-09-16T16:52:45.329Z,27.16
2022-09-16T16:54:25.084Z,27.15
2022-09-16T16:56:04.895Z,27.16
2022-09-16T16:57:44.658Z,27.16
2022-09-16T16:59:24.257Z,27.15
2022-09-16T17:01:04.171Z,27.11
2022-09-16T17:02:43.929Z,27.06
2022-09-16T17:04:23.743Z,27.03
2022-09-16T17:06:03.470Z,26.97
2022-09-16T17:09:23.007Z,26.87
2022-09-16T17:11:02.828Z,26.82
2022-09-16T17:14:22.335Z,26.76
2022-09-16T17:16:02.140Z,26.73
2022-09-16T17:17:41.832Z,26.7
2022-09-16T17:19:21.637Z,26.56
2022-09-16T17:21:01.336Z,26.65
2022-09-16T17:22:41.145Z,26.62
2022-09-16T17:24:20.929Z,26.59
2022-09-16T17:26:00.681Z,26.56
2022-09-16T17:27:40.485Z,26.55
2022-09-16T17:29:20.232Z,26.52
2022-09-16T17:31:00.010Z,26.5
2022-09-16T17:32:39.756Z,26.48
2022-09-16T17:34:19.538Z,26.45
2022-09-16T17:35:59.275Z,26.44
2022-09-16T17:37:39.080Z,26.43
2022-09-16T17:39:18.874Z,26.41
2022-09-16T17:40:58.607Z,26.4
2022-09-16T17:42:38.363Z,26.39
2022-09-16T17:44:18.003Z,26.28
2022-09-16T17:45:57.767Z,26.37
2022-09-16T17:47:37.697Z,26.36
2022-09-16T17:49:17.435Z,26.35
2022-09-16T17:50:57.212Z,26.34
2022-09-16T17:52:37.013Z,26.33
2022-09-16T17:54:16.702Z,26.32
2022-09-16T17:55:56.506Z,26.31
2022-09-16T17:57:36.211Z,26.3
2022-09-16T17:59:16.062Z,26.3
2022-09-16T18:00:55.804Z,26.29
2022-09-16T18:02:35.515Z,26.28
2022-09-16T18:04:15.324Z,26.28
2022-09-16T18:05:55.125Z,26.27
2022-09-16T18:07:34.893Z,26.26
2022-09-16T18:09:14.519Z,26.17
2022-09-16T18:10:54.424Z,26.25
2022-09-16T18:12:34.170Z,26.25
2022-09-16T18:14:13.811Z,26.24
2022-09-16T18:15:53.718Z,26.23
2022-09-16T18:17:33.490Z,26.23
2022-09-16T18:19:13.294Z,26.22
2022-09-16T18:20:53.018Z,26.21
2022-09-16T18:22:32.775Z,26.21
2022-09-16T18:24:12.567Z,26.21
2022-09-16T18:25:52.320Z,26.2
2022-09-16T18:29:11.720Z,26.19
2022-09-16T18:30:51.633Z,26.19
2022-09-16T18:32:31.358Z,26.19
2022-09-16T18:34:11.190Z,26.12
2022-09-16T18:35:50.773Z,26.18
2022-09-16T18:37:30.697Z,26.18
2022-09-16T18:39:10.322Z,26.17
2022-09-16T18:40:50.221Z,26.17
2022-09-16T18:42:29.990Z,26.17
2022-09-16T18:44:09.683Z,26.17
2022-09-16T18:45:49.388Z,26.16
2022-09-16T18:47:29.150Z,26.16
2022-09-16T18:49:09.063Z,26.15
2022-09-16T18:50:48.701Z,26.16
2022-09-16T18:52:28.529Z,26.15
2022-09-16T18:54:08.237Z,26.15
2022-09-16T18:55:48.072Z,26.15
2022-09-16T18:57:27.897Z,26.14
2022-09-16T18:59:07.679Z,26.09
2022-09-16T19:00:47.287Z,26.15
2022-09-16T19:02:27.071Z,26.14
2022-09-16T19:04:06.965Z,26.14
2022-09-16T19:05:46.602Z,26.14
2022-09-16T19:07:26.449Z,26.14
2022-09-16T19:09:06.222Z,26.14
2022-09-16T19:10:45.979Z,26.13
2022-09-16T19:12:25.826Z,26.14
2022-09-16T19:14:05.555Z,26.13
2022-09-16T19:15:45.335Z,26.13
2022-09-16T19:17:24.964Z,26.13
2022-09-16T19:19:04.849Z,26.13
2022-09-16T19:20:44.584Z,26.13
2022-09-16T19:22:24.318Z,26.12
2022-09-16T19:24:04.043Z,26.12
2022-09-16T19:25:43.822Z,26.12
2022-09-16T19:27:23.681Z,26.12
2022-09-16T19:29:03.437Z,26.12
2022-09-16T19:30:43.247Z,26.12
2022-09-16T19:32:23.000Z,26.12
2022-09-16T19:34:02.632Z,26.12
2022-09-16T19:35:42.551Z,26.11
2022-09-16T19:37:22.293Z,26.11
2022-09-16T19:39:01.985Z,26.11
2022-09-16T19:40:41.708Z,26.11
2022-09-16T19:42:21.619Z,26.11
2022-09-16T19:44:01.302Z,26.11
2022-09-16T19:45:41.121Z,26.1
2022-09-16T19:47:20.835Z,26.1
2022-09-16T19:49:00.697Z,26.11
2022-09-16T19:50:40.449Z,26.1
2022-09-16T19:52:20.154Z,26.1
2022-09-16T19:55:39.774Z,26.1
2022-09-16T19:57:19.500Z,26.1
2022-09-16T19:58:59.290Z,26.1
2022-09-16T20:00:39.026Z,26.1
2022-09-16T20:02:18.843Z,26.09
2022-09-16T20:03:58.595Z,26.1
2022-09-16T20:05:38.338Z,26.09
2022-09-16T20:07:17.992Z,26.1
2022-09-16T20:08:57.875Z,26.09
2022-09-16T20:10:37.644Z,26.09
2022-09-16T20:12:17.305Z,26.09
2022-09-16T20:13:57.205Z,26.09
2022-09-16T20:15:36.900Z,26.08
2022-09-16T20:17:16.728Z,26.08
2022-09-16T20:18:56.365Z,26.08
2022-09-16T20:22:15.993Z,26.08
2022-09-16T20:23:55.661Z,26.08
2022-09-16T20:27:15.298Z,26.08
2022-09-16T20:28:55.093Z,26.07
2022-09-16T20:30:34.745Z,26.08
2022-09-16T20:32:14.500Z,26.08
2022-09-16T20:33:54.360Z,26.07
2022-09-16T20:35:34.115Z,26.07
2022-09-16T20:37:13.941Z,26.06
2022-09-16T20:38:53.723Z,26.07
2022-09-16T20:40:33.419Z,26.07
2022-09-16T20:42:13.225Z,26.07
2022-09-16T20:43:53.031Z,26.07
2022-09-16T20:45:32.650Z,26.07
2022-09-16T20:47:12.507Z,26.07
2022-09-16T20:48:52.291Z,26.06
2022-09-16T20:50:31.951Z,26.06
2022-09-16T20:52:11.723Z,26.06
2022-09-16T20:53:51.610Z,26.06
2022-09-16T20:55:31.351Z,26.06
2022-09-16T20:58:50.953Z,26.05
2022-09-16T21:00:30.718Z,26.05
2022-09-16T21:02:10.308Z,26.05
2022-09-16T21:03:50.230Z,26.05
2022-09-16T21:05:29.976Z,26.05
2022-09-16T21:07:09.771Z,26.05
2022-09-16T21:08:49.394Z,26.05
2022-09-16T21:10:29.176Z,26.05
2022-09-16T21:12:09.076Z,26.05
2022-09-16T21:13:48.834Z,26.05
2022-09-16T21:15:28.587Z,26.05
2022-09-16T21:17:08.228Z,26.05
2022-09-16T21:18:48.138Z,26.05
2022-09-16T21:20:27.877Z,26.04
2022-09-16T21:22:07.741Z,26.04
2022-09-16T21:23:47.297Z,26.04
2022-09-16T21:25:27.179Z,26.04
2022-09-16T21:27:06.892Z,26.04
2022-09-16T21:28:46.753Z,26.04
2022-09-16T21:30:26.510Z,26.03
2022-09-16T21:32:06.139Z,26.04
2022-09-16T21:33:45.888Z,26.04
2022-09-16T21:35:25.767Z,26.03
2022-09-16T21:37:05.560Z,26.03
2022-09-16T21:38:45.262Z,26.03
2022-09-16T21:40:25.109Z,26.04
2022-09-16T21:42:04.907Z,26.03
2022-09-16T21:43:44.648Z,26.03
2022-09-16T21:45:24.383Z,26.03
2022-09-16T21:47:04.183Z,26.03
2022-09-16T21:48:43.979Z,26.03
2022-09-16T21:50:23.723Z,26.03
2022-09-16T21:52:03.490Z,26.02
2022-09-16T21:55:23.019Z,26.02
2022-09-16T21:57:02.707Z,26.02
2022-09-16T21:58:42.552Z,26.02
2022-09-16T22:00:22.325Z,26.02
2022-09-16T22:02:02.089Z,26.02
2022-09-16T22:03:41.715Z,26.02
2022-09-16T22:05:21.623Z,26.02
2022-09-16T22:07:01.389Z,26.02
2022-09-16T22:08:41.192Z,26.02
2022-09-16T22:10:20.812Z,26.02
2022-09-16T22:12:00.557Z,26.01
2022-09-16T22:13:40.469Z,26.01
2022-09-16T22:15:20.092Z,26.01